Time;durP1;ratioP1;P1;durP2;ratioP2;P2;SDS_P1;SDS_P2;PMS_P1;PMS_P2;Temp;Humidity;BMP_temperature;BMP_pressure;BME280_temperature;BME280_humidity;BME280_pressure;Samples;Min_cycle;Max_cycle;Signal;HPM_P1;HPM_P2
2021/04/16 00:02:23;;;;;;;3.63;2.97;;;;;;;8.30;39.37;99204.13;6280836;22;20002;-77
2021/04/16 00:04:49;;;;;;;3.67;2.28;;;;;;;8.27;39.48;99206.50;6279666;22;20041;-76
2021/04/16 00:07:14;;;;;;;2.72;2.47;;;;;;;8.26;40.14;99215.56;6307279;22;19999;-78
2021/04/16 00:09:40;;;;;;;2.58;1.75;;;;;;;8.19;39.85;99215.78;6308688;22;19995;-76
2021/04/16 00:12:06;;;;;;;3.25;2.35;;;;;;;8.12;40.14;99215.19;6307201;22;20320;-77
2021/04/16 00:14:32;;;;;;;5.50;2.80;;;;;;;8.07;39.91;99209.81;6307146;22;20332;-77
2021/04/16 00:16:58;;;;;;;3.10;2.20;;;;;;;8.10;39.87;99230.63;6307287;22;19999;-77
2021/04/16 00:19:24;;;;;;;2.83;2.45;;;;;;;8.06;40.36;99218.88;6307943;22;20005;-77
2021/04/16 00:21:49;;;;;;;6.10;2.55;;;;;;;8.04;39.81;99219.13;6280191;22;20082;-77
2021/04/16 00:24:15;;;;;;;2.28;2.08;;;;;;;8.00;40.48;99226.03;6306935;22;20440;-77
2021/04/16 00:26:42;;;;;;;4.32;2.80;;;;;;;7.96;40.59;99233.72;6308367;22;20002;-77
2021/04/16 00:29:07;;;;;;;4.07;2.80;;;;;;;7.92;41.02;99224.63;6278948;22;20000;-77
2021/04/16 00:31:34;;;;;;;3.83;2.50;;;;;;;7.88;41.91;99228.06;6306472;22;20026;-77
2021/04/16 00:34:00;;;;;;;5.53;3.13;;;;;;;7.78;41.77;99220.78;6307192;22;20064;-77
2021/04/16 00:36:27;;;;;;;3.45;2.67;;;;;;;7.74;42.26;99212.50;6280213;22;20011;-77
2021/04/16 00:39:12;;;;;;;5.22;3.40;;;;;;;7.69;42.38;99223.91;6310543;22;19999;-80
2021/04/16 00:41:38;;;;;;;3.25;2.35;;;;;;;7.61;42.31;99229.66;6282277;22;20447;-78
2021/04/16 00:44:04;;;;;;;2.88;2.67;;;;;;;7.53;42.49;99214.16;6281353;22;20044;-78
2021/04/16 00:46:48;;;;;;;4.18;3.78;;;;;;;7.52;42.81;99223.22;6308352;22;20007;-79
2021/04/16 00:49:26;;;;;;;3.75;2.88;;;;;;;7.49;42.52;99229.03;6281615;22;19999;-78
2021/04/16 00:51:56;;;;;;;5.22;2.78;;;;;;;7.42;42.12;99229.22;6282921;22;20446;-78
2021/04/16 00:54:27;;;;;;;4.72;3.03;;;;;;;7.44;42.67;99231.63;6282338;22;19999;-78
2021/04/16 00:56:53;;;;;;;4.07;2.83;;;;;;;7.43;42.52;99228.16;6307742;22;20010;-78
2021/04/16 00:59:24;;;;;;;3.30;2.58;;;;;;;7.45;42.24;99236.69;6308064;22;20213;-79
2021/04/16 01:01:49;;;;;;;4.05;2.85;;;;;;;7.46;42.32;99224.22;6281212;22;20007;-80
2021/04/16 01:04:15;;;;;;;2.63;2.42;;;;;;;7.48;42.08;99214.09;6281593;22;19999;-81
2021/04/16 01:06:41;;;;;;;3.75;2.90;;;;;;;7.48;41.94;99219.44;6281632;22;20008;-78
2021/04/16 01:09:08;;;;;;;2.85;2.63;;;;;;;7.49;41.88;99226.34;6305977;22;20017;-79
2021/04/16 01:11:33;;;;;;;4.85;4.03;;;;;;;7.47;41.63;99221.28;6307969;22;19991;-77
2021/04/16 01:13:59;;;;;;;4.20;2.53;;;;;;;7.43;42.06;99222.84;6280816;22;20120;-77
2021/04/16 01:16:30;;;;;;;2.78;2.50;;;;;;;7.46;41.66;99227.66;6307643;22;20006;-77
2021/04/16 01:18:57;;;;;;;4.93;3.13;;;;;;;7.47;41.99;99228.47;6305580;22;20003;-78
2021/04/16 01:21:28;;;;;;;3.38;2.38;;;;;;;7.43;41.20;99233.47;6306885;22;20003;-76
2021/04/16 01:24:03;;;;;;;2.88;2.67;;;;;;;7.41;41.67;99232.13;6307134;22;20378;-76
2021/04/16 01:26:36;;;;;;;3.30;2.88;;;;;;;7.39;41.09;99231.59;6305174;22;20028;-77
2021/04/16 01:29:01;;;;;;;3.22;2.55;;;;;;;7.39;41.44;99228.94;6307098;22;19999;-76
2021/04/16 01:31:28;;;;;;;4.43;2.63;;;;;;;7.36;40.79;99227.53;6308479;22;20003;-78
2021/04/16 01:33:54;;;;;;;4.85;3.00;;;;;;;7.37;40.97;99237.97;6276669;22;20034;-78
2021/04/16 01:36:27;;;;;;;7.60;3.60;;;;;;;7.37;41.21;99235.31;6251710;22;20008;-78
2021/04/16 01:38:55;;;;;;;5.45;3.30;;;;;;;7.39;41.21;99244.91;6251557;22;19996;-79
2021/04/16 01:41:23;;;;;;;5.78;3.20;;;;;;;7.37;41.25;99235.31;6276712;22;20000;-80
2021/04/16 01:44:04;;;;;;;4.85;2.53;;;;;;;7.39;40.73;99234.25;6277214;22;20404;-79
2021/04/16 01:46:46;;;;;;;4.32;3.28;;;;;;;7.35;40.69;99231.28;6274618;22;19999;-77
2021/04/16 01:49:12;;;;;;;4.50;3.03;;;;;;;7.34;40.87;99243.75;6249576;22;20041;-78
2021/04/16 01:51:37;;;;;;;4.40;3.08;;;;;;;7.31;40.78;99230.16;6279116;22;19996;-78
2021/04/16 01:54:18;;;;;;;2.65;2.45;;;;;;;7.26;40.67;99240.75;6277776;22;20000;-77
2021/04/16 01:56:46;;;;;;;4.32;2.72;;;;;;;7.24;41.28;99243.66;6278663;22;19995;-78
2021/04/16 01:59:16;;;;;;;3.38;3.00;;;;;;;7.20;40.89;99240.69;6277813;22;20031;-78
2021/04/16 02:01:45;;;;;;;3.67;2.88;;;;;;;7.20;40.92;99240.69;6277094;22;20420;-79
2021/04/16 02:04:12;;;;;;;3.85;3.13;;;;;;;7.21;40.84;99250.28;6250708;22;20448;-78
2021/04/16 02:06:39;;;;;;;3.30;2.60;;;;;;;7.17;41.64;99241.19;6277341;22;20314;-77
2021/04/16 02:09:07;;;;;;;3.35;2.67;;;;;;;7.16;42.09;99241.44;6252684;22;20023;-78
2021/04/16 02:11:35;;;;;;;2.70;2.50;;;;;;;7.15;42.08;99251.28;6280448;22;20033;-78
2021/04/16 02:14:01;;;;;;;2.35;2.25;;;;;;;7.13;41.51;99255.22;6256013;22;20055;-78
2021/04/16 02:16:26;;;;;;;6.15;3.25;;;;;;;7.04;42.89;99252.19;6281987;22;19995;-78
2021/04/16 02:18:53;;;;;;;3.15;2.85;;;;;;;7.03;44.30;99251.41;6277844;22;20007;-77
2021/04/16 02:21:19;;;;;;;5.32;3.72;;;;;;;6.89;46.18;99252.81;6278775;22;20379;-77
2021/04/16 02:23:44;;;;;;;5.20;3.70;;;;;;;6.79;47.04;99258.00;6252364;22;19999;-77
2021/04/16 02:26:09;;;;;;;4.13;3.50;;;;;;;6.75;47.76;99270.16;6276889;22;20003;-78
2021/04/16 02:28:35;;;;;;;6.32;4.13;;;;;;;6.63;48.26;99262.28;6278234;22;20000;-76
2021/04/16 02:31:00;;;;;;;4.38;3.47;;;;;;;6.56;48.86;99267.78;6280175;22;20122;-77
2021/04/16 02:33:26;;;;;;;4.93;4.00;;;;;;;6.48;49.35;99268.19;6298291;22;20011;-78
2021/04/16 02:35:51;;;;;;;5.03;3.78;;;;;;;6.35;49.54;99264.03;6312089;22;19995;-78
2021/04/16 02:38:16;;;;;;;6.43;4.05;;;;;;;6.27;49.83;99267.09;6310382;22;20003;-78
2021/04/16 02:40:42;;;;;;;5.43;3.72;;;;;;;6.12;49.93;99273.75;6312830;22;20425;-78
2021/04/16 02:43:07;;;;;;;4.63;3.95;;;;;;;6.04;49.23;99260.88;6314317;22;20002;-77
2021/04/16 02:45:33;;;;;;;6.60;3.83;;;;;;;6.04;48.69;99279.44;6311334;22;20025;-77
2021/04/16 02:47:58;;;;;;;4.45;3.45;;;;;;;5.98;47.94;99267.09;6313993;22;19999;-78
2021/04/16 02:50:28;;;;;;;6.80;3.60;;;;;;;6.00;47.80;99273.81;6285957;22;20015;-78
2021/04/16 02:52:54;;;;;;;4.72;3.55;;;;;;;5.99;47.62;99280.16;6313548;22;20010;-79
2021/04/16 02:55:19;;;;;;;5.07;3.63;;;;;;;5.94;47.47;99280.06;6310509;22;20002;-78
2021/04/16 02:57:45;;;;;;;5.20;4.07;;;;;;;5.91;47.57;99276.03;6309566;22;20419;-78
2021/04/16 03:00:16;;;;;;;6.07;3.85;;;;;;;5.91;47.39;99276.03;6313505;22;19999;-77
2021/04/16 03:02:41;;;;;;;5.82;4.32;;;;;;;5.90;47.32;99281.59;6284346;22;20063;-79
2021/04/16 03:05:07;;;;;;;5.32;3.63;;;;;;;5.90;47.25;99278.94;6286571;22;20484;-77
2021/04/16 03:07:33;;;;;;;5.40;3.75;;;;;;;5.89;47.16;99269.34;6308551;22;20025;-77
2021/04/16 03:09:58;;;;;;;8.68;3.40;;;;;;;5.87;46.73;99264.28;6282736;22;20021;-76
2021/04/16 03:12:23;;;;;;;6.32;4.00;;;;;;;5.86;46.94;99265.34;6283536;22;20094;-75
2021/04/16 03:14:49;;;;;;;5.35;3.40;;;;;;;5.87;46.69;99274.91;6308776;22;20074;-76
2021/04/16 03:17:14;;;;;;;4.63;3.28;;;;;;;5.85;46.12;99281.50;6308626;22;20333;-76
2021/04/16 03:19:40;;;;;;;5.70;3.47;;;;;;;5.87;46.51;99290.00;6308944;22;19999;-75
2021/04/16 03:22:05;;;;;;;7.97;3.47;;;;;;;5.87;46.21;99282.88;6281508;22;19999;-75
2021/04/16 03:24:30;;;;;;;3.60;3.30;;;;;;;5.87;46.42;99295.31;6307660;22;19999;-78
2021/04/16 03:26:56;;;;;;;5.35;3.78;;;;;;;5.85;46.09;99302.75;6284565;22;20007;-75
2021/04/16 03:29:22;;;;;;;5.85;4.38;;;;;;;5.88;46.60;99305.72;6284120;22;20362;-76
2021/04/16 03:31:48;;;;;;;5.63;3.70;;;;;;;5.88;46.68;99297.75;6312612;22;19999;-77
2021/04/16 03:34:16;;;;;;;5.07;4.07;;;;;;;5.90;46.67;99300.16;6310757;22;20136;-78
2021/04/16 03:36:41;;;;;;;5.95;4.03;;;;;;;5.92;46.65;99300.75;6314361;22;20064;-78
2021/04/16 03:39:07;;;;;;;6.65;3.92;;;;;;;5.92;46.48;99308.72;6314556;22;20015;-78
2021/04/16 03:41:32;;;;;;;4.95;4.30;;;;;;;5.91;46.89;99315.84;6313495;22;20478;-78
2021/04/16 03:43:58;;;;;;;4.30;3.67;;;;;;;5.91;47.31;99323.81;6286540;22;19995;-77
2021/04/16 03:46:23;;;;;;;5.15;4.38;;;;;;;5.85;46.68;99319.47;6311704;22;20383;-77
2021/04/16 03:48:49;;;;;;;5.50;4.30;;;;;;;5.87;47.05;99325.34;6311377;22;20006;-78
2021/04/16 03:51:15;;;;;;;10.75;4.22;;;;;;;5.86;47.22;99329.03;6288382;22;19999;-79
2021/04/16 03:53:41;;;;;;;6.72;5.03;;;;;;;5.87;47.42;99321.88;6310870;22;19995;-78
2021/04/16 03:56:09;;;;;;;6.53;4.85;;;;;;;5.83;47.33;99323.41;6287282;22;20088;-80
2021/04/16 03:58:35;;;;;;;4.82;4.22;;;;;;;5.86;47.21;99337.00;6283155;22;20003;-80
2021/04/16 04:01:03;;;;;;;7.45;4.00;;;;;;;5.89;47.15;99338.38;6280233;22;20038;-80
2021/04/16 04:03:29;;;;;;;7.15;4.03;;;;;;;5.96;47.06;99335.56;6281130;22;19995;-79
2021/04/16 04:05:54;;;;;;;4.65;4.10;;;;;;;6.05;47.11;99339.47;6306035;22;20007;-79
2021/04/16 04:08:19;;;;;;;5.95;3.83;;;;;;;6.20;47.07;99344.25;6307850;22;20014;-78
2021/04/16 04:10:45;;;;;;;7.07;4.22;;;;;;;6.43;46.14;99351.28;6308177;22;20002;-78
2021/04/16 04:13:13;;;;;;;7.78;3.92;;;;;;;6.60;46.23;99345.16;6309328;22;20006;-79
2021/04/16 04:15:40;;;;;;;6.25;3.58;;;;;;;6.89;45.75;99351.19;6288538;22;20087;-80
2021/04/16 04:18:05;;;;;;;7.45;3.78;;;;;;;7.20;44.79;99346.28;6307361;22;20424;-80
2021/04/16 04:20:33;;;;;;;6.38;4.50;;;;;;;7.57;43.03;99356.34;6278966;22;20038;-75
2021/04/16 04:23:00;;;;;;;7.93;4.80;;;;;;;7.84;43.09;99356.34;6308623;22;20002;-80
2021/04/16 04:25:28;;;;;;;5.80;4.03;;;;;;;8.29;42.65;99359.72;6303706;22;20044;-79
2021/04/16 04:27:55;;;;;;;5.93;3.55;;;;;;;8.64;41.41;99355.78;6278183;22;19999;-80
2021/04/16 04:30:25;;;;;;;7.07;4.22;;;;;;;8.99;41.11;99355.50;6277914;22;20431;-79
2021/04/16 04:32:51;;;;;;;8.82;4.35;;;;;;;9.41;40.73;99355.44;6302560;22;20015;-78
2021/04/16 04:35:16;;;;;;;6.05;4.78;;;;;;;9.65;39.42;99357.66;6303287;22;20313;-78
2021/04/16 04:37:42;;;;;;;5.40;3.72;;;;;;;10.13;39.41;99354.84;6277218;22;20027;-81
2021/04/16 04:40:09;;;;;;;9.60;5.03;;;;;;;10.55;37.36;99358.38;6277046;22;20007;-81
2021/04/16 04:42:34;;;;;;;8.05;5.30;;;;;;;10.94;37.73;99363.16;6276283;22;20045;-78
2021/04/16 04:45:00;;;;;;;12.57;7.47;;;;;;;11.26;36.27;99356.66;6303095;22;20412;-78
2021/04/16 04:47:26;;;;;;;9.57;4.60;;;;;;;11.57;35.98;99369.94;6276225;22;20003;-79
2021/04/16 04:49:51;;;;;;;7.60;5.18;;;;;;;11.96;35.52;99369.25;6276998;22;20057;-78
2021/04/16 04:52:23;;;;;;;8.95;6.03;;;;;;;12.24;34.97;99360.75;6277164;22;20523;-78
2021/04/16 04:54:50;;;;;;;7.60;5.20;;;;;;;12.39;34.84;99373.25;6302362;22;20003;-79
2021/04/16 04:57:19;;;;;;;6.47;4.90;;;;;;;12.33;35.00;99375.97;6302738;22;19999;-78
2021/04/16 04:59:45;;;;;;;10.23;6.57;;;;;;;12.39;35.85;99373.25;6303263;22;20092;-79
2021/04/16 05:02:11;;;;;;;10.80;7.70;;;;;;;12.36;35.93;99376.50;6302494;22;20014;-79
2021/04/16 05:04:37;;;;;;;14.45;7.55;;;;;;;12.24;36.71;99380.34;6277033;22;20159;-80
2021/04/16 05:07:02;;;;;;;8.60;6.80;;;;;;;12.22;36.12;99365.59;6276718;22;19999;-80
2021/04/16 05:09:28;;;;;;;9.18;6.10;;;;;;;12.30;36.40;99381.09;6276531;22;20006;-80
2021/04/16 05:11:53;;;;;;;9.80;4.68;;;;;;;12.61;35.70;99380.88;6302909;22;20006;-79
2021/04/16 05:14:19;;;;;;;5.93;4.10;;;;;;;12.69;34.31;99382.94;6276948;22;20007;-79
2021/04/16 05:16:45;;;;;;;6.93;5.78;;;;;;;12.93;34.70;99382.19;6302493;22;20007;-79
2021/04/16 05:19:10;;;;;;;4.28;3.75;;;;;;;13.10;33.56;99369.13;6276870;22;20007;-79
2021/04/16 05:21:38;;;;;;;5.63;3.95;;;;;;;13.19;31.97;99377.34;6276837;22;19995;-81
2021/04/16 05:24:06;;;;;;;6.55;3.97;;;;;;;13.33;32.46;99357.88;6276135;22;19995;-78
2021/04/16 05:26:31;;;;;;;5.40;4.07;;;;;;;13.55;31.95;99365.41;6276384;22;20029;-78
2021/04/16 05:28:57;;;;;;;5.72;4.65;;;;;;;13.69;31.75;99363.63;6302521;22;20031;-78
2021/04/16 05:31:22;;;;;;;5.05;3.95;;;;;;;14.02;32.04;99368.31;6301593;22;20412;-77
2021/04/16 05:33:47;;;;;;;4.57;3.70;;;;;;;14.12;31.97;99370.84;6276394;22;20061;-78
2021/04/16 05:36:13;;;;;;;5.25;4.78;;;;;;;14.03;31.16;99369.94;6302737;22;19999;-77
2021/04/16 05:38:39;;;;;;;4.63;4.22;;;;;;;14.01;32.03;99377.47;6301418;22;20355;-77
2021/04/16 05:41:04;;;;;;;5.15;4.40;;;;;;;14.17;31.48;99372.66;6302411;22;20013;-77
2021/04/16 05:43:29;;;;;;;6.38;4.70;;;;;;;14.29;30.54;99373.03;6275770;22;20087;-77
2021/04/16 05:45:55;;;;;;;7.15;3.90;;;;;;;14.35;29.99;99371.84;6301641;22;20000;-78
2021/04/16 05:48:20;;;;;;;5.60;4.10;;;;;;;14.42;30.79;99366.09;6302379;22;20528;-78
2021/04/16 05:50:46;;;;;;;5.40;4.45;;;;;;;14.58;30.57;99372.03;6304241;22;20412;-78
2021/04/16 05:53:11;;;;;;;7.00;5.25;;;;;;;14.72;29.38;99364.03;6275838;22;20000;-78
2021/04/16 05:55:36;;;;;;;5.97;4.18;;;;;;;14.73;29.98;99377.22;6302282;22;20006;-78
2021/04/16 05:58:02;;;;;;;5.07;4.68;;;;;;;14.86;29.65;99377.53;6302536;22;20003;-79
2021/04/16 06:00:28;;;;;;;7.47;4.50;;;;;;;14.99;30.15;99374.06;6301352;22;20003;-79
2021/04/16 06:02:54;;;;;;;4.70;4.03;;;;;;;15.08;29.41;99381.47;6302418;22;20094;-79
2021/04/16 06:05:21;;;;;;;6.47;4.40;;;;;;;15.13;29.86;99389.44;6276478;22;20203;-78
2021/04/16 06:07:47;;;;;;;7.15;4.70;;;;;;;15.10;29.75;99377.38;6301022;22;20022;-79
2021/04/16 06:10:15;;;;;;;4.15;3.83;;;;;;;15.15;29.43;99381.88;6302182;22;20057;-80
2021/04/16 06:12:40;;;;;;;5.55;4.60;;;;;;;15.24;29.92;99382.75;6276446;22;20394;-80
2021/04/16 06:15:10;;;;;;;6.03;4.03;;;;;;;15.31;29.83;99380.47;6302079;22;20006;-77
2021/04/16 06:17:36;;;;;;;5.47;4.13;;;;;;;15.33;29.57;99372.06;6301976;22;20090;-80
2021/04/16 06:20:02;;;;;;;5.85;4.07;;;;;;;15.37;29.73;99373.09;6276582;22;20042;-79
2021/04/16 06:22:28;;;;;;;5.10;4.65;;;;;;;15.31;28.86;99369.69;6301255;22;19999;-79
2021/04/16 06:24:53;;;;;;;5.22;3.92;;;;;;;15.23;29.15;99364.22;6276573;22;19999;-79
2021/04/16 06:27:19;;;;;;;5.95;4.25;;;;;;;15.10;28.70;99366.59;6302072;22;20007;-79
2021/04/16 06:29:45;;;;;;;6.43;4.20;;;;;;;14.97;29.53;99370.06;6301297;22;20420;-79
2021/04/16 06:32:13;;;;;;;4.78;4.15;;;;;;;14.87;29.42;99371.06;6276301;22;20072;-79
2021/04/16 06:34:39;;;;;;;3.95;3.47;;;;;;;14.67;29.16;99386.47;6276257;22;20010;-79
2021/04/16 06:37:04;;;;;;;5.03;3.45;;;;;;;14.54;29.42;99379.91;6276174;22;20384;-79
2021/04/16 06:39:30;;;;;;;5.47;3.70;;;;;;;14.38;30.01;99381.25;6302108;22;20435;-76
2021/04/16 06:41:59;;;;;;;5.63;3.65;;;;;;;14.28;29.38;99376.81;6250832;22;20360;-78
2021/04/16 06:44:29;;;;;;;;;;;;;;;14.16;29.69;99374.56;6276135;22;20084;-78
2021/04/16 06:47:05;;;;;;;4.63;3.08;;;;;;;14.09;29.53;99383.00;6275668;22;19991;-78
2021/04/16 06:49:31;;;;;;;4.80;3.63;;;;;;;13.93;29.46;99379.72;6303069;22;20052;-78
2021/04/16 06:52:08;;;;;;;4.10;3.70;;;;;;;13.79;30.92;99376.16;6276165;22;20065;-79
2021/04/16 06:55:02;;;;;;;9.50;4.38;;;;;;;13.64;31.02;99382.53;6276232;22;20086;-78
2021/04/16 06:57:43;;;;;;;5.13;3.50;;;;;;;13.46;31.35;99381.38;6277987;22;20059;-78
2021/04/16 07:00:09;;;;;;;5.63;4.03;;;;;;;13.45;33.13;99387.84;6303559;22;20434;-78
2021/04/16 07:02:41;;;;;;;5.40;4.30;;;;;;;13.45;32.54;99396.72;6303785;22;20030;-78
2021/04/16 07:05:49;;;;;;;4.07;3.65;;;;;;;13.48;32.30;99394.56;6278008;22;20012;-79
2021/04/16 07:08:29;;;;;;;6.15;4.20;;;;;;;13.25;32.89;99397.69;6209918;23;20005;-78
2021/04/16 07:10:56;;;;;;;5.55;4.55;;;;;;;13.32;34.24;99391.19;6297757;22;19999;-78
2021/04/16 07:13:38;;;;;;;5.45;4.38;;;;;;;13.44;34.04;99394.31;6278259;22;20072;-78
2021/04/16 07:16:05;;;;;;;4.72;3.90;;;;;;;13.49;33.85;99388.06;6278034;22;20007;-78
2021/04/16 07:18:35;;;;;;;6.22;4.10;;;;;;;13.51;33.14;99385.91;6277818;22;20010;-78
2021/04/16 07:21:02;;;;;;;4.20;3.55;;;;;;;13.51;32.77;99383.22;6278202;22;20470;-78
2021/04/16 07:23:28;;;;;;;5.72;4.28;;;;;;;13.55;34.02;99393.13;6277422;22;20161;-78
2021/04/16 07:26:20;;;;;;;8.20;5.07;;;;;;;13.49;33.11;99382.69;6303325;22;20631;-78
2021/04/16 07:28:51;;;;;;;7.57;4.95;;;;;;;13.45;33.32;99385.16;6302927;22;20008;-78
2021/04/16 07:31:28;;;;;;;4.35;3.65;;;;;;;13.51;33.01;99381.34;6303970;22;20082;-78
2021/04/16 07:33:55;;;;;;;5.85;4.15;;;;;;;13.35;33.59;99374.50;6277972;22;20015;-78
2021/04/16 07:36:26;;;;;;;4.80;3.50;;;;;;;13.29;33.81;99382.63;6277791;22;19999;-79
2021/04/16 07:39:16;;;;;;;4.90;3.55;;;;;;;13.28;33.30;99375.66;6303763;22;19999;-79
2021/04/16 07:42:10;;;;;;;4.90;3.53;;;;;;;13.15;32.50;99375.53;6263302;22;20035;-79
2021/04/16 07:44:55;;;;;;;5.35;4.80;;;;;;;13.10;33.19;99374.50;6277364;22;20010;-79
2021/04/16 07:47:28;;;;;;;4.22;3.40;;;;;;;12.98;32.25;99374.09;6305179;22;20003;-78
2021/04/16 07:49:58;;;;;;;4.10;3.70;;;;;;;12.94;32.25;99384.59;6303415;22;20007;-79
2021/04/16 07:52:23;;;;;;;3.15;2.85;;;;;;;13.01;31.92;99383.47;6303106;22;19999;-79
2021/04/16 07:55:14;;;;;;;6.65;3.45;;;;;;;12.85;30.93;99380.13;6277597;22;20045;-79
2021/04/16 07:58:11;;;;;;;4.32;3.28;;;;;;;12.78;31.21;99378.56;6277605;22;20003;-79
2021/04/16 08:00:45;;;;;;;4.60;2.35;;;;;;;12.65;31.52;99389.94;6270411;22;20027;-79
2021/04/16 08:03:14;;;;;;;3.83;2.35;;;;;;;12.71;31.27;99388.03;6277880;22;20003;-79
2021/04/16 08:06:21;;;;;;;4.28;3.85;;;;;;;12.58;30.67;99390.25;6277098;22;20057;-79
2021/04/16 08:08:47;;;;;;;3.50;3.20;;;;;;;12.55;31.72;99384.66;6277285;22;20007;-79
2021/04/16 08:11:19;;;;;;;4.30;3.17;;;;;;;12.61;31.84;99388.91;6303200;22;20064;-79
2021/04/16 08:13:45;;;;;;;2.97;2.75;;;;;;;12.61;31.44;99392.41;6277037;22;20003;-78
2021/04/16 08:16:18;;;;;;;3.95;3.50;;;;;;;12.63;31.10;99392.91;6277733;22;20400;-78
2021/04/16 08:19:05;;;;;;;3.70;3.05;;;;;;;12.71;31.45;99394.19;6302678;22;20003;-79
2021/04/16 08:21:36;;;;;;;3.35;3.00;;;;;;;12.84;30.39;99383.88;6302856;22;20142;-79
2021/04/16 08:24:19;;;;;;;4.55;3.30;;;;;;;12.77;31.20;99378.84;6277555;22;20003;-79
2021/04/16 08:26:56;;;;;;;3.78;2.70;;;;;;;12.83;30.19;99375.03;6276896;22;19999;-79
2021/04/16 08:29:32;;;;;;;3.28;3.00;;;;;;;12.84;29.92;99390.06;6277229;22;19995;-80
2021/04/16 08:32:24;;;;;;;6.47;3.65;;;;;;;12.90;30.31;99377.38;6303482;22;20026;-79
2021/04/16 08:34:59;;;;;;;2.72;2.30;;;;;;;12.91;30.01;99378.97;6277348;22;20018;-79
2021/04/16 08:37:28;;;;;;;5.75;2.80;;;;;;;12.91;30.13;99384.34;6276935;22;20014;-78
2021/04/16 08:39:55;;;;;;;5.30;3.03;;;;;;;13.00;30.23;99371.13;6277378;22;20399;-78
2021/04/16 08:42:31;;;;;;;5.15;3.50;;;;;;;13.09;30.92;99380.16;6277489;22;20086;-78
2021/04/16 08:45:00;;;;;;;4.18;3.40;;;;;;;13.17;31.18;99376.03;6302964;22;19995;-79
2021/04/16 08:47:44;;;;;;;4.07;3.70;;;;;;;13.21;31.43;99377.88;6277335;22;20014;-78
2021/04/16 08:50:10;;;;;;;5.63;3.45;;;;;;;13.24;31.65;99373.81;6276969;22;20232;-78
2021/04/16 08:52:56;;;;;;;3.60;2.92;;;;;;;13.33;31.26;99374.81;6276452;22;20029;-77
2021/04/16 08:55:38;;;;;;;4.07;3.22;;;;;;;13.37;31.45;99369.66;6277061;22;20083;-78
2021/04/16 08:58:06;;;;;;;7.00;4.22;;;;;;;13.34;31.48;99380.97;6302590;22;20007;-78
2021/04/16 09:00:35;;;;;;;4.72;3.88;;;;;;;13.26;32.34;99374.34;6302668;22;20086;-78
2021/04/16 09:03:04;;;;;;;3.42;3.13;;;;;;;13.25;31.12;99373.53;6302586;22;20491;-79
2021/04/16 09:05:49;;;;;;;4.35;2.83;;;;;;;13.33;30.52;99374.81;6302128;22;20000;-79
2021/04/16 09:08:15;;;;;;;5.45;3.05;;;;;;;13.40;30.91;99375.28;6277274;22;20007;-79
2021/04/16 09:11:02;;;;;;;5.45;3.55;;;;;;;13.43;31.48;99372.03;6276527;22;20010;-79
2021/04/16 09:13:34;;;;;;;6.03;3.93;;;;;;;13.48;30.99;99365.00;6275897;22;20325;-79
2021/04/16 09:16:14;;;;;;;4.43;3.22;;;;;;;13.38;30.42;99361.34;6277343;22;20007;-79
2021/04/16 09:18:41;;;;;;;3.92;3.60;;;;;;;13.34;30.93;99354.91;6276661;22;20060;-78
2021/04/16 09:21:12;;;;;;;3.92;3.22;;;;;;;13.35;30.24;99348.44;6303847;22;19995;-78
2021/04/16 09:23:37;;;;;;;3.05;2.50;;;;;;;13.40;29.96;99344.94;6276723;22;20077;-79
2021/04/16 09:26:03;;;;;;;5.57;3.25;;;;;;;13.43;29.84;99344.38;6276885;22;20074;-79
2021/04/16 09:28:32;;;;;;;4.30;3.28;;;;;;;13.50;30.12;99346.69;6276848;22;19999;-78
2021/04/16 09:31:24;;;;;;;5.65;3.20;;;;;;;13.50;29.85;99328.69;6277184;22;20034;-78
2021/04/16 09:34:06;;;;;;;3.85;3.13;;;;;;;13.61;30.02;99321.31;6302321;22;20015;-79
2021/04/16 09:36:31;;;;;;;3.60;2.70;;;;;;;13.65;29.20;99326.91;6276666;22;19999;-78
2021/04/16 09:39:16;;;;;;;3.03;2.72;;;;;;;13.70;28.21;99311.50;6277095;22;19999;-78
2021/04/16 09:41:44;;;;;;;3.63;2.70;;;;;;;13.66;28.10;99302.41;6276179;22;20007;-79
2021/04/16 09:44:28;;;;;;;3.72;2.50;;;;;;;13.75;29.29;99311.41;6302773;22;20009;-79
2021/04/16 09:47:05;;;;;;;4.32;2.90;;;;;;;13.77;28.04;99303.06;6276609;22;20007;-78
2021/04/16 09:49:35;;;;;;;4.53;2.70;;;;;;;13.66;27.46;99306.97;6276217;22;20493;-78
2021/04/16 09:52:26;;;;;;;4.55;2.53;;;;;;;13.61;27.25;99300.59;6276533;22;20078;-78
2021/04/16 09:54:52;;;;;;;2.85;2.42;;;;;;;13.58;29.36;99298.47;6301492;22;19999;-78
2021/04/16 09:57:17;;;;;;;2.55;2.35;;;;;;;13.63;28.11;99284.16;6301373;22;20096;-78
2021/04/16 09:59:44;;;;;;;2.47;2.13;;;;;;;13.64;27.74;99290.38;6276565;22;20068;-78
2021/04/16 10:02:10;;;;;;;3.05;2.15;;;;;;;13.68;25.57;99280.63;6276611;22;20003;-78
2021/04/16 10:05:02;;;;;;;3.40;2.25;;;;;;;13.66;26.50;99278.22;6275761;22;20140;-78
2021/04/16 10:07:52;;;;;;;4.00;2.22;;;;;;;13.74;26.93;99277.59;6275324;22;20015;-78
2021/04/16 10:10:17;;;;;;;2.35;2.15;;;;;;;13.67;27.43;99260.22;6302072;22;20031;-78
2021/04/16 10:12:43;;;;;;;2.85;2.28;;;;;;;13.79;27.44;99267.84;6275450;22;19995;-78
2021/04/16 10:15:25;;;;;;;2.90;2.40;;;;;;;13.85;27.37;99263.97;6275533;22;20417;-78
2021/04/16 10:17:59;;;;;;;4.43;2.85;;;;;;;13.88;27.22;99266.88;6275989;22;20007;-78
2021/04/16 10:20:28;;;;;;;3.78;2.75;;;;;;;13.93;27.54;99268.69;6275849;22;20003;-78
2021/04/16 10:23:04;;;;;;;3.22;2.72;;;;;;;14.01;27.31;99261.84;6276203;22;20141;-78
2021/04/16 12:39:57;;;;;;;2.67;2.42;;;;;;;13.96;28.76;99151.69;6304432;22;20006;-78
2021/04/16 12:42:23;;;;;;;3.15;2.38;;;;;;;13.94;29.22;99146.63;6277702;22;20003;-78
2021/04/16 12:44:51;;;;;;;3.75;2.53;;;;;;;13.93;29.10;99145.81;6277040;22;20000;-78
2021/04/16 12:47:30;;;;;;;3.17;2.08;;;;;;;14.01;28.86;99148.91;6276203;22;20003;-78
2021/04/16 12:49:57;;;;;;;4.13;2.80;;;;;;;14.08;28.74;99130.50;6303082;22;20049;-78
2021/04/16 12:52:23;;;;;;;3.47;2.40;;;;;;;14.19;29.07;99136.50;6277263;22;20361;-78
2021/04/16 12:54:51;;;;;;;3.88;2.50;;;;;;;14.25;29.22;99141.47;6276328;22;19999;-78
2021/04/16 12:57:20;;;;;;;6.18;3.00;;;;;;;14.32;29.19;99138.41;6276864;22;20027;-78
2021/04/16 12:59:48;;;;;;;3.53;2.40;;;;;;;14.41;29.20;99130.41;6276867;22;20451;-78
2021/04/16 13:02:23;;;;;;;3.05;2.72;;;;;;;14.51;29.59;99127.53;6302840;22;20072;-78
2021/04/16 13:04:49;;;;;;;3.55;2.38;;;;;;;14.57;29.54;99123.66;6302813;22;20003;-79
2021/04/16 13:07:15;;;;;;;4.00;2.50;;;;;;;14.60;29.32;99124.13;6276806;22;20033;-78
2021/04/16 13:09:40;;;;;;;4.57;2.55;;;;;;;14.62;30.04;99116.56;6302205;22;20011;-78
2021/04/16 13:12:06;;;;;;;3.97;2.65;;;;;;;14.74;30.58;99119.56;6303077;22;20003;-78
2021/04/16 13:14:32;;;;;;;2.75;2.25;;;;;;;14.87;30.27;99116.03;6302769;22;20011;-78
2021/04/16 13:16:57;;;;;;;4.30;2.90;;;;;;;15.01;30.73;99110.66;6301651;22;20387;-78
2021/04/16 13:19:33;;;;;;;3.97;2.97;;;;;;;15.11;30.21;99117.69;6277272;22;20064;-78
2021/04/16 13:22:11;;;;;;;3.17;2.65;;;;;;;15.12;29.21;99113.88;6302665;22;20003;-78
2021/04/16 13:24:37;;;;;;;5.55;2.65;;;;;;;15.14;29.72;99114.38;6276616;22;19995;-78
2021/04/16 13:27:08;;;;;;;2.72;2.50;;;;;;;15.15;29.58;99101.72;6276327;22;19996;-78
2021/04/16 13:29:33;;;;;;;3.25;2.63;;;;;;;15.17;30.39;99112.97;6302848;22;20041;-78
2021/04/16 13:32:00;;;;;;;4.57;3.47;;;;;;;15.21;30.11;99108.59;6302028;22;20003;-78
2021/04/16 13:34:26;;;;;;;2.78;2.58;;;;;;;15.28;29.54;99111.66;6276769;22;20018;-78
2021/04/16 13:36:53;;;;;;;5.30;3.00;;;;;;;15.33;29.75;99099.94;6276635;22;20007;-78
2021/04/16 13:39:20;;;;;;;2.85;2.40;;;;;;;15.36;29.30;99097.44;6276336;22;20007;-78
2021/04/16 13:41:45;;;;;;;2.95;2.17;;;;;;;15.45;29.99;99094.81;6302108;22;20417;-78
2021/04/16 13:44:11;;;;;;;2.90;2.20;;;;;;;15.51;28.85;99098.16;6302873;22;20094;-79
2021/04/16 13:46:39;;;;;;;3.85;2.15;;;;;;;15.44;29.84;99100.50;6302110;22;19999;-78
2021/04/16 13:49:08;;;;;;;2.60;2.22;;;;;;;15.31;29.38;99089.47;6276770;22;20003;-78
2021/04/16 13:51:34;;;;;;;6.03;2.85;;;;;;;15.24;29.78;99099.88;6276706;22;20189;-78
2021/04/16 13:54:04;;;;;;;3.95;2.60;;;;;;;15.15;29.37;99089.03;6301952;22;20087;-78
2021/04/16 13:56:31;;;;;;;13.05;5.07;;;;;;;15.12;29.48;99095.03;6276725;22;19999;-79
2021/04/16 13:58:57;;;;;;;4.68;3.50;;;;;;;15.07;29.21;99095.16;6276141;22;20003;-78
2021/04/16 14:01:23;;;;;;;9.23;5.95;;;;;;;15.00;29.88;99092.06;6301610;22;20003;-78
2021/04/16 14:03:50;;;;;;;6.28;4.30;;;;;;;15.00;30.29;99100.16;6302166;22;20003;-78